createdAt,value
2023-02-03T00:00:47.901Z,7.68
2023-02-03T00:03:14.233Z,8.05
2023-02-03T00:05:41.990Z,5.50
2023-02-03T00:08:09.350Z,8.55
2023-02-03T00:10:38.746Z,3.83
2023-02-03T00:13:06.117Z,5.93
2023-02-03T00:15:32.758Z,5.63
2023-02-03T00:17:59.501Z,5.55
2023-02-03T00:20:26.377Z,5.32
2023-02-03T00:22:53.022Z,5.35
2023-02-03T00:25:21.312Z,7.70
2023-02-03T00:27:47.694Z,4.32
2023-02-03T00:30:14.087Z,5.50
2023-02-03T00:32:40.610Z,4.70
2023-02-03T00:35:07.402Z,6.97
2023-02-03T00:37:36.042Z,5.03
2023-02-03T00:40:02.427Z,6.40
2023-02-03T00:42:28.713Z,5.85
2023-02-03T00:44:55.045Z,5.05
2023-02-03T00:47:21.597Z,8.40
2023-02-03T00:49:48.011Z,5.75
2023-02-03T00:52:14.320Z,6.50
2023-02-03T00:54:40.671Z,5.88
2023-02-03T00:57:07.007Z,6.53
2023-02-03T00:59:33.367Z,6.55
2023-02-03T01:01:59.781Z,6.68
2023-02-03T01:04:26.180Z,5.88
2023-02-03T01:06:57.304Z,5.25
2023-02-03T01:09:24.383Z,5.35
2023-02-03T01:11:51.199Z,6.20
2023-02-03T01:14:17.871Z,8.05
2023-02-03T01:16:44.234Z,4.40
2023-02-03T01:19:10.656Z,4.45
2023-02-03T01:21:38.684Z,9.30
2023-02-03T01:24:05.147Z,7.05
2023-02-03T01:26:31.472Z,8.60
2023-02-03T01:29:00.413Z,11.13
2023-02-03T01:31:30.124Z,7.68
2023-02-03T01:33:57.386Z,4.03
2023-02-03T01:36:25.450Z,6.88
2023-02-03T01:38:51.894Z,6.28
2023-02-03T01:41:22.132Z,5.75
2023-02-03T01:43:51.770Z,3.47
2023-02-03T01:46:27.202Z,8.25
2023-02-03T01:48:59.621Z,6.70
2023-02-03T01:51:26.199Z,6.53
2023-02-03T01:53:53.777Z,6.45
2023-02-03T01:56:21.382Z,6.85
2023-02-03T01:58:49.546Z,8.00
2023-02-03T02:01:18.536Z,6.78
2023-02-03T02:03:50.223Z,4.03
2023-02-03T02:06:16.594Z,6.45
2023-02-03T02:08:47.758Z,6.88
2023-02-03T02:13:42.717Z,4.20
2023-02-03T02:16:34.456Z,4.63
2023-02-03T02:19:27.242Z,6.07
2023-02-03T02:22:10.151Z,3.08
2023-02-03T02:25:14.508Z,5.53
2023-02-03T02:28:02.439Z,6.70
2023-02-03T02:30:44.977Z,3.00
2023-02-03T02:33:49.830Z,3.70
2023-02-03T02:36:31.227Z,3.28
2023-02-03T02:41:49.252Z,8.45
2023-02-03T02:44:26.465Z,4.25
2023-02-03T02:46:57.141Z,6.45
2023-02-03T02:49:40.728Z,6.20
2023-02-03T02:52:08.516Z,5.47
2023-02-03T02:54:40.742Z,4.90
2023-02-03T02:57:11.731Z,5.53
2023-02-03T02:59:38.084Z,6.93
2023-02-03T03:02:04.423Z,5.63
2023-02-03T03:04:34.560Z,11.10
2023-02-03T03:07:07.274Z,5.28
2023-02-03T03:09:41.945Z,4.93
2023-02-03T03:12:17.129Z,4.38
2023-02-03T03:14:47.755Z,3.40
2023-02-03T03:17:22.292Z,5.30
2023-02-03T03:19:52.690Z,4.32
2023-02-03T03:22:24.583Z,2.92
2023-02-03T03:24:56.041Z,3.45
2023-02-03T03:27:25.139Z,2.03
2023-02-03T03:29:57.270Z,4.18
2023-02-03T03:32:24.549Z,3.13
2023-02-03T03:34:51.851Z,5.65
2023-02-03T03:37:39.151Z,4.97
2023-02-03T03:40:29.655Z,4.43
2023-02-03T03:43:02.063Z,4.33
2023-02-03T03:45:35.514Z,2.45
2023-02-03T03:48:11.793Z,3.10
2023-02-03T03:50:43.743Z,2.67
2023-02-03T03:53:11.661Z,3.80
2023-02-03T03:55:41.003Z,5.63
2023-02-03T03:58:12.826Z,3.92
2023-02-03T04:00:41.508Z,2.90
2023-02-03T04:03:15.608Z,5.22
2023-02-03T04:05:42.931Z,6.22
2023-02-03T04:08:09.471Z,4.72
2023-02-03T04:10:38.635Z,4.95
2023-02-03T04:13:06.812Z,3.72
2023-02-03T04:15:34.178Z,8.32
2023-02-03T04:18:03.451Z,6.18
2023-02-03T04:20:31.587Z,5.80
2023-02-03T04:22:58.408Z,6.47
2023-02-03T04:25:25.839Z,3.00
2023-02-03T04:27:52.220Z,2.80
2023-02-03T04:30:18.741Z,6.35
2023-02-03T04:32:46.363Z,2.75
2023-02-03T04:35:13.730Z,4.97
2023-02-03T04:37:40.781Z,3.95
2023-02-03T04:40:08.003Z,3.60
2023-02-03T04:42:39.739Z,3.30
2023-02-03T04:45:08.392Z,3.60
2023-02-03T04:47:35.312Z,7.13
2023-02-03T04:50:02.117Z,4.65
2023-02-03T04:52:28.607Z,6.05
2023-02-03T04:54:54.952Z,4.82
2023-02-03T04:57:21.287Z,2.45
2023-02-03T04:59:47.592Z,3.22
2023-02-03T05:02:13.869Z,2.67
2023-02-03T05:04:40.184Z,4.30
2023-02-03T05:07:06.467Z,3.97
2023-02-03T05:09:32.747Z,5.30
2023-02-03T05:11:59.173Z,3.50
2023-02-03T05:14:25.521Z,2.55
2023-02-03T05:16:51.960Z,6.88
2023-02-03T05:19:18.286Z,4.18
2023-02-03T05:21:44.615Z,4.40
2023-02-03T05:24:10.935Z,2.95
2023-02-03T05:26:37.317Z,3.22
2023-02-03T05:29:03.674Z,2.70
2023-02-03T05:31:30.233Z,3.50
2023-02-03T05:33:56.555Z,2.67
2023-02-03T05:36:22.920Z,3.83
2023-02-03T05:38:49.362Z,3.75
2023-02-03T05:41:34.285Z,4.57
2023-02-03T05:44:00.717Z,5.15
2023-02-03T05:46:27.025Z,5.03
2023-02-03T05:48:53.352Z,5.50
2023-02-03T05:51:19.676Z,6.80
2023-02-03T05:53:46.016Z,3.45
2023-02-03T05:56:12.300Z,4.22
2023-02-03T05:58:38.593Z,4.93
2023-02-03T06:01:05.037Z,4.32
2023-02-03T06:03:31.398Z,3.50
2023-02-03T06:05:58.814Z,5.05
2023-02-03T06:08:28.426Z,4.05
2023-02-03T06:11:00.699Z,2.17
2023-02-03T06:13:27.508Z,4.85
2023-02-03T06:15:54.065Z,1.92
2023-02-03T06:18:20.925Z,4.78
2023-02-03T06:20:47.485Z,5.53
2023-02-03T06:23:14.047Z,2.28
2023-02-03T06:25:40.478Z,3.67
2023-02-03T06:28:06.875Z,3.95
2023-02-03T06:30:33.203Z,3.97
2023-02-03T06:32:59.543Z,2.58
2023-02-03T06:35:25.872Z,4.45
2023-02-03T06:37:52.171Z,5.22
2023-02-03T06:40:18.712Z,10.02
2023-02-03T06:42:48.508Z,6.88
2023-02-03T06:45:15.276Z,7.93
2023-02-03T06:47:42.987Z,5.97
2023-02-03T06:50:11.420Z,4.70
2023-02-03T06:52:38.032Z,9.23
2023-02-03T06:55:05.514Z,2.97
2023-02-03T06:57:32.539Z,6.00
2023-02-03T06:59:59.084Z,6.63
2023-02-03T07:02:25.509Z,4.70
2023-02-03T07:04:51.868Z,3.83
2023-02-03T07:07:18.355Z,7.53
2023-02-03T07:09:44.657Z,2.70
2023-02-03T07:12:11.081Z,6.82
2023-02-03T07:14:39.194Z,5.45
2023-02-03T07:17:06.515Z,3.38
2023-02-03T07:19:32.908Z,3.00
2023-02-03T07:21:59.299Z,3.35
2023-02-03T07:24:25.715Z,1.85
2023-02-03T07:26:53.162Z,3.50
2023-02-03T07:29:19.465Z,5.65
2023-02-03T07:31:45.878Z,4.22
2023-02-03T07:34:12.318Z,5.60
2023-02-03T07:36:38.680Z,4.72
2023-02-03T07:39:05.217Z,5.57
2023-02-03T07:41:31.546Z,3.28
2023-02-03T07:43:57.983Z,3.50
2023-02-03T07:46:24.347Z,5.70
2023-02-03T07:48:51.049Z,8.98
2023-02-03T07:51:17.386Z,9.38
2023-02-03T07:53:43.769Z,11.00
2023-02-03T07:56:11.935Z,11.60
2023-02-03T07:58:38.525Z,11.25
2023-02-03T08:01:16.534Z,10.35
2023-02-03T08:03:42.931Z,15.38
2023-02-03T08:06:10.000Z,34.03
2023-02-03T08:08:36.494Z,21.50
2023-02-03T08:11:03.362Z,30.85
2023-02-03T08:13:29.676Z,21.25
2023-02-03T08:15:56.054Z,30.00
2023-02-03T08:18:22.511Z,23.02
2023-02-03T08:20:49.202Z,50.20
2023-02-03T08:23:16.117Z,14.75
2023-02-03T08:25:42.523Z,11.90
2023-02-03T08:28:09.025Z,16.55
2023-02-03T08:30:35.741Z,17.17
2023-02-03T08:33:02.100Z,12.45
2023-02-03T08:35:28.804Z,9.00
2023-02-03T08:37:55.510Z,8.00
2023-02-03T08:40:22.010Z,15.52
2023-02-03T08:42:48.382Z,26.77
2023-02-03T08:45:14.794Z,18.35
2023-02-03T08:47:41.181Z,16.77
2023-02-03T08:50:08.422Z,13.45
2023-02-03T08:52:34.865Z,4.97
2023-02-03T08:55:01.157Z,7.60
2023-02-03T08:57:27.565Z,3.55
2023-02-03T08:59:54.831Z,4.78
2023-02-03T09:02:21.146Z,4.82
2023-02-03T09:04:48.960Z,4.85
2023-02-03T09:07:16.573Z,5.55
2023-02-03T09:09:42.966Z,4.20
2023-02-03T09:12:11.488Z,2.83
2023-02-03T09:14:37.821Z,5.55
2023-02-03T09:17:05.706Z,3.08
2023-02-03T09:19:35.339Z,7.85
2023-02-03T09:22:02.550Z,2.58
2023-02-03T09:24:29.067Z,4.80
2023-02-03T09:26:55.855Z,4.47
2023-02-03T09:29:23.112Z,4.63
2023-02-03T09:31:52.608Z,4.68
2023-02-03T09:34:20.527Z,5.60
2023-02-03T09:36:47.662Z,3.05
2023-02-03T09:39:14.631Z,3.05
2023-02-03T09:42:08.079Z,4.28
2023-02-03T09:44:40.918Z,3.35
2023-02-03T09:47:15.039Z,2.58
2023-02-03T09:50:04.831Z,3.75
2023-02-03T09:52:34.256Z,3.85
2023-02-03T09:55:25.938Z,1.88
2023-02-03T09:58:05.506Z,3.70
2023-02-03T10:00:52.914Z,4.43
2023-02-03T10:03:28.333Z,5.43
2023-02-03T10:06:25.874Z,3.15
2023-02-03T10:09:03.431Z,11.38
2023-02-03T10:11:50.050Z,30.13
2023-02-03T10:14:32.805Z,26.17
2023-02-03T10:17:11.841Z,23.50
2023-02-03T10:19:53.386Z,29.60
2023-02-03T10:22:25.833Z,10.98
2023-02-03T10:24:58.973Z,13.52
2023-02-03T10:27:26.964Z,15.77
2023-02-03T10:30:00.367Z,11.55
2023-02-03T10:32:27.461Z,12.10
2023-02-03T10:34:54.921Z,8.30
2023-02-03T10:37:36.865Z,6.22
2023-02-03T10:40:04.120Z,5.32
2023-02-03T10:42:52.245Z,6.28
2023-02-03T10:45:20.524Z,4.53
2023-02-03T10:47:51.733Z,4.75
2023-02-03T10:52:45.950Z,7.15
2023-02-03T10:55:21.662Z,2.47
2023-02-03T10:57:48.629Z,3.05
2023-02-03T11:00:18.789Z,5.07
2023-02-03T11:02:46.004Z,3.28
2023-02-03T11:05:24.902Z,4.05
2023-02-03T11:07:52.211Z,8.07
2023-02-03T11:10:37.667Z,7.45
2023-02-03T11:13:17.045Z,6.63
2023-02-03T11:16:04.660Z,4.72
2023-02-03T11:18:41.826Z,5.03
2023-02-03T11:21:11.809Z,7.22
2023-02-03T11:23:46.815Z,8.23
2023-02-03T11:26:17.899Z,5.00
2023-02-03T11:28:47.613Z,8.68
2023-02-03T11:31:39.041Z,3.20
2023-02-03T11:34:15.530Z,3.03
2023-02-03T11:36:41.889Z,6.88
2023-02-03T11:39:29.585Z,4.53
2023-02-03T11:41:56.486Z,6.60
2023-02-03T11:44:26.182Z,4.40
2023-02-03T11:46:57.379Z,2.78
2023-02-03T11:49:50.894Z,3.53
2023-02-03T11:52:19.866Z,4.80
2023-02-03T11:55:26.326Z,7.35
2023-02-03T11:58:11.109Z,4.10
2023-02-03T12:01:02.235Z,2.00
2023-02-03T12:03:49.700Z,6.38
2023-02-03T12:06:40.556Z,5.60
2023-02-03T12:09:22.805Z,4.28
2023-02-03T12:12:32.429Z,4.63
2023-02-03T12:15:17.570Z,7.00
2023-02-03T12:17:58.184Z,6.47
2023-02-03T12:20:34.811Z,2.63
2023-02-03T12:23:42.370Z,7.38
2023-02-03T12:26:08.634Z,3.35
2023-02-03T12:28:48.516Z,7.93
2023-02-03T12:31:24.367Z,3.17
2023-02-03T12:33:56.363Z,4.07
2023-02-03T12:37:06.466Z,4.93
2023-02-03T12:39:45.879Z,5.90
2023-02-03T12:42:18.793Z,5.80
2023-02-03T12:45:00.865Z,3.85
2023-02-03T12:47:44.609Z,3.55
2023-02-03T12:50:19.416Z,2.45
2023-02-03T12:52:55.383Z,3.17
2023-02-03T12:55:37.242Z,1.55
2023-02-03T12:58:07.308Z,4.40
2023-02-03T13:00:54.411Z,2.90
2023-02-03T13:03:42.661Z,1.85
2023-02-03T13:06:22.477Z,2.80
2023-02-03T13:09:25.622Z,3.30
2023-02-03T13:12:19.339Z,3.03
2023-02-03T13:14:54.564Z,2.28
2023-02-03T13:17:37.864Z,3.33
2023-02-03T13:20:13.790Z,3.33
2023-02-03T13:22:40.111Z,3.05
2023-02-03T13:25:20.846Z,2.03
2023-02-03T13:28:19.698Z,2.90
2023-02-03T13:31:10.895Z,4.13
2023-02-03T13:34:16.350Z,2.60
2023-02-03T13:37:01.477Z,5.40
2023-02-03T13:39:41.708Z,2.33
2023-02-03T13:42:22.383Z,3.38
2023-02-03T13:44:53.458Z,4.53
2023-02-03T13:47:37.793Z,3.05
2023-02-03T13:50:21.186Z,4.03
2023-02-03T13:53:01.077Z,3.95
2023-02-03T13:55:38.544Z,2.83
2023-02-03T13:58:18.346Z,2.38
2023-02-03T14:00:44.667Z,2.88
2023-02-03T14:03:38.546Z,3.10
2023-02-03T14:06:10.066Z,2.30
2023-02-03T14:08:36.381Z,3.55
2023-02-03T14:11:37.749Z,2.92
2023-02-03T14:14:04.007Z,3.35
2023-02-03T14:16:35.032Z,5.72
2023-02-03T14:19:01.495Z,5.25
2023-02-03T14:21:36.780Z,7.13
2023-02-03T14:24:07.645Z,8.57
2023-02-03T14:26:38.501Z,7.82
2023-02-03T14:29:06.357Z,8.85
2023-02-03T14:31:53.216Z,6.18
2023-02-03T14:34:29.593Z,8.63
2023-02-03T14:36:56.245Z,11.68
2023-02-03T14:39:35.580Z,8.93
2023-02-03T14:42:01.843Z,10.57
2023-02-03T14:44:50.210Z,7.72
2023-02-03T14:47:34.692Z,9.35
2023-02-03T14:50:26.026Z,9.43
2023-02-03T14:55:54.887Z,9.48
2023-02-03T14:58:29.942Z,8.85
2023-02-03T15:00:56.484Z,9.00
2023-02-03T15:03:25.403Z,8.48
2023-02-03T15:05:54.441Z,9.32
2023-02-03T15:08:42.186Z,7.72
2023-02-03T15:11:43.522Z,7.93
2023-02-03T15:14:27.757Z,7.25
2023-02-03T15:16:57.577Z,6.78
2023-02-03T15:19:27.368Z,8.90
2023-02-03T15:21:53.797Z,8.35
2023-02-03T15:24:23.724Z,8.85
2023-02-03T15:26:52.940Z,8.88
2023-02-03T15:29:27.362Z,11.20
2023-02-03T15:32:01.516Z,15.05
2023-02-03T15:34:39.614Z,9.63
2023-02-03T15:37:18.740Z,10.52
2023-02-03T15:39:47.762Z,23.33
2023-02-03T15:42:28.214Z,16.65
2023-02-03T15:45:02.145Z,22.80
2023-02-03T15:47:41.159Z,11.93
2023-02-03T15:50:23.442Z,12.88
2023-02-03T15:52:52.533Z,14.43
2023-02-03T15:55:32.105Z,12.32
2023-02-03T15:57:58.916Z,9.60
2023-02-03T16:00:40.688Z,12.93
2023-02-03T16:03:19.606Z,11.98
2023-02-03T16:05:49.411Z,7.65
2023-02-03T16:08:36.593Z,11.35
2023-02-03T16:11:29.309Z,10.38
2023-02-03T16:13:57.258Z,11.95
2023-02-03T16:16:28.635Z,11.80
2023-02-03T16:18:57.757Z,10.32
2023-02-03T16:21:27.880Z,13.23
2023-02-03T16:23:54.233Z,8.43
2023-02-03T16:26:23.098Z,7.32
2023-02-03T16:29:23.051Z,6.72
2023-02-03T16:32:08.361Z,9.02
2023-02-03T16:34:53.484Z,7.90
2023-02-03T16:37:41.477Z,10.85
2023-02-03T16:40:27.868Z,7.43
2023-02-03T16:43:12.817Z,7.60
2023-02-03T16:45:58.183Z,12.70
2023-02-03T16:48:43.229Z,10.13
2023-02-03T16:51:15.843Z,9.70
2023-02-03T16:53:45.056Z,9.95
2023-02-03T16:56:12.739Z,15.30
2023-02-03T16:58:39.077Z,10.45
2023-02-03T17:01:07.532Z,10.35
2023-02-03T17:03:35.857Z,11.02
2023-02-03T17:06:10.673Z,9.38
2023-02-03T17:08:38.648Z,11.23
2023-02-03T17:11:08.560Z,10.70
2023-02-03T17:13:36.611Z,13.55
2023-02-03T17:16:12.966Z,11.05
2023-02-03T17:18:40.066Z,17.33
2023-02-03T17:21:08.393Z,12.20
2023-02-03T17:23:34.955Z,12.23
2023-02-03T17:26:01.300Z,14.02
2023-02-03T17:28:27.771Z,15.68
2023-02-03T17:31:05.272Z,17.70
2023-02-03T17:33:32.889Z,13.57
2023-02-03T17:36:12.560Z,17.88
2023-02-03T17:55:07.932Z,20.80
2023-02-03T17:57:37.010Z,20.52
2023-02-03T18:00:05.396Z,22.50
2023-02-03T18:02:38.822Z,21.17
2023-02-03T18:05:05.506Z,42.45
2023-02-03T18:07:31.802Z,67.30
2023-02-03T18:09:58.222Z,39.42
2023-02-03T18:12:24.590Z,53.88
2023-02-03T18:14:51.025Z,26.73
2023-02-03T18:17:17.369Z,31.95
2023-02-03T18:19:46.802Z,35.58
2023-02-03T18:22:15.490Z,20.77
2023-02-03T18:24:44.735Z,21.60
2023-02-03T18:27:16.483Z,24.23
2023-02-03T18:29:44.647Z,33.65
2023-02-03T18:32:11.717Z,22.17
2023-02-03T18:34:38.134Z,27.48
2023-02-03T18:37:04.441Z,31.15
2023-02-03T18:39:30.765Z,32.92
2023-02-03T18:41:57.075Z,33.13
2023-02-03T18:44:26.157Z,34.55
2023-02-03T18:46:53.900Z,28.88
2023-02-03T18:49:20.384Z,40.83
2023-02-03T18:51:46.703Z,45.80
2023-02-03T18:54:13.010Z,40.25
2023-02-03T18:56:39.330Z,40.67
2023-02-03T18:59:08.570Z,72.43
2023-02-03T19:01:35.167Z,72.75
2023-02-03T19:04:03.150Z,56.75
2023-02-03T19:06:32.072Z,50.63
2023-02-03T19:08:59.398Z,36.92
2023-02-03T19:11:26.020Z,55.78
2023-02-03T19:13:52.534Z,63.28
2023-02-03T19:16:19.136Z,33.90
2023-02-03T19:18:46.251Z,23.45
2023-02-03T19:21:13.569Z,22.55
2023-02-03T19:23:41.563Z,25.42
2023-02-03T19:26:09.627Z,26.27
2023-02-03T19:28:36.018Z,31.90
2023-02-03T19:31:08.768Z,28.92
2023-02-03T19:33:36.503Z,31.80
2023-02-03T19:36:04.531Z,27.45
2023-02-03T19:38:30.982Z,34.80
2023-02-03T19:40:57.406Z,29.73
2023-02-03T19:43:24.562Z,32.72
2023-02-03T19:45:51.509Z,22.50
2023-02-03T19:48:18.030Z,21.30
2023-02-03T19:50:46.811Z,26.42
2023-02-03T19:53:14.398Z,28.27
2023-02-03T19:55:42.635Z,26.70
2023-02-03T19:58:09.275Z,26.63
2023-02-03T20:00:35.803Z,27.60
2023-02-03T20:03:02.235Z,26.45
2023-02-03T20:05:29.661Z,34.90
2023-02-03T20:07:56.109Z,30.45
2023-02-03T20:10:22.509Z,33.05
2023-02-03T20:12:48.789Z,23.20
2023-02-03T20:15:15.198Z,32.17
2023-02-03T20:17:42.798Z,23.48
2023-02-03T20:20:11.840Z,31.73
2023-02-03T20:22:38.177Z,33.05
2023-02-03T20:25:06.035Z,23.15
2023-02-03T20:27:32.516Z,25.55
2023-02-03T20:29:58.830Z,19.02
2023-02-03T20:32:25.208Z,32.63
2023-02-03T20:34:52.149Z,32.33
2023-02-03T20:37:18.447Z,28.73
2023-02-03T20:39:44.741Z,33.80
2023-02-03T20:42:15.673Z,38.25
2023-02-03T20:44:42.778Z,33.75
2023-02-03T20:47:13.182Z,24.35
2023-02-03T20:49:39.640Z,25.33
2023-02-03T20:52:11.113Z,32.00
2023-02-03T20:54:37.490Z,33.40
2023-02-03T20:57:11.388Z,32.05
2023-02-03T20:59:38.362Z,27.88
2023-02-03T21:02:30.580Z,27.20
2023-02-03T21:05:17.600Z,31.80
2023-02-03T21:07:43.900Z,31.77
2023-02-03T21:10:19.944Z,30.33
2023-02-03T21:12:47.018Z,31.45
2023-02-03T21:15:24.932Z,32.42
2023-02-03T21:17:51.309Z,32.35
2023-02-03T21:20:25.688Z,30.02
2023-02-03T21:22:52.492Z,24.60
2023-02-03T21:25:28.581Z,32.55
2023-02-03T21:27:57.982Z,34.17
2023-02-03T21:30:32.540Z,27.35
2023-02-03T21:32:59.326Z,26.63
2023-02-03T21:35:31.750Z,24.30
2023-02-03T21:38:02.384Z,29.65
2023-02-03T21:40:32.197Z,29.45
2023-02-03T21:42:59.766Z,33.15
2023-02-03T21:45:34.122Z,29.30
2023-02-03T21:48:01.698Z,32.58
2023-02-03T21:50:33.592Z,27.92
2023-02-03T21:53:24.559Z,32.67
2023-02-03T21:55:50.967Z,20.65
2023-02-03T21:58:30.505Z,25.00
2023-02-03T22:01:02.531Z,24.33
2023-02-03T22:03:35.876Z,32.25
2023-02-03T22:06:08.191Z,28.50
2023-02-03T22:08:45.165Z,25.50
2023-02-03T22:11:12.765Z,23.33
2023-02-03T22:13:39.091Z,21.10
2023-02-03T22:16:05.724Z,23.67
2023-02-03T22:18:32.081Z,22.02
2023-02-03T22:20:58.537Z,22.95
2023-02-03T22:23:24.960Z,26.23
2023-02-03T22:25:51.468Z,22.70
2023-02-03T22:28:17.913Z,21.10
2023-02-03T22:30:44.379Z,22.05
2023-02-03T22:33:10.741Z,24.90
2023-02-03T22:35:37.119Z,30.10
2023-02-03T22:38:03.620Z,44.70
2023-02-03T22:40:30.254Z,41.65
2023-02-03T22:42:56.731Z,37.08
2023-02-03T22:45:23.250Z,33.28
2023-02-03T22:47:49.604Z,26.38
2023-02-03T22:50:17.482Z,33.90
2023-02-03T22:52:46.847Z,21.67
2023-02-03T22:55:13.208Z,20.92
2023-02-03T22:57:40.619Z,25.85
2023-02-03T23:00:11.873Z,22.90
2023-02-03T23:05:09.226Z,26.52
2023-02-03T23:07:36.959Z,21.90
2023-02-03T23:10:04.866Z,17.25
2023-02-03T23:12:31.178Z,18.90
2023-02-03T23:14:57.611Z,25.73
2023-02-03T23:17:23.975Z,30.65
2023-02-03T23:19:50.374Z,24.52
2023-02-03T23:22:16.997Z,25.08
2023-02-03T23:24:43.360Z,19.83
2023-02-03T23:27:10.173Z,24.80
2023-02-03T23:29:38.022Z,21.23
2023-02-03T23:32:05.625Z,29.85
2023-02-03T23:34:51.098Z,20.77
2023-02-03T23:37:17.514Z,26.38
2023-02-03T23:39:43.971Z,24.27
2023-02-03T23:42:10.315Z,21.33
2023-02-03T23:44:36.706Z,28.17
2023-02-03T23:47:03.335Z,46.03
2023-02-03T23:49:31.216Z,36.25
2023-02-03T23:51:57.619Z,29.63
2023-02-03T23:54:24.287Z,39.17
2023-02-03T23:56:50.702Z,33.20
2023-02-03T23:59:17.008Z,45.42
